sensor_id;sensor_type;location;lat;lon;timestamp;P1;durP1;ratioP1;P2;durP2;ratioP2
69305;SDS011;56427;51.580;4.656;2023-04-03T00:00:17;6.90;;;3.83;;
69305;SDS011;56427;51.580;4.656;2023-04-03T00:02:43;8.90;;;4.17;;
69305;SDS011;56427;51.580;4.656;2023-04-03T00:05:08;7.65;;;3.70;;
69305;SDS011;56427;51.580;4.656;2023-04-03T00:07:34;8.50;;;3.88;;
69305;SDS011;56427;51.580;4.656;2023-04-03T00:09:59;9.77;;;3.97;;
69305;SDS011;56427;51.580;4.656;2023-04-03T00:12:25;7.15;;;3.88;;
69305;SDS011;56427;51.580;4.656;2023-04-03T00:14:50;8.73;;;3.67;;
69305;SDS011;56427;51.580;4.656;2023-04-03T00:17:16;10.00;;;3.63;;
69305;SDS011;56427;51.580;4.656;2023-04-03T00:19:41;7.57;;;3.00;;
69305;SDS011;56427;51.580;4.656;2023-04-03T00:22:06;5.37;;;2.70;;
69305;SDS011;56427;51.580;4.656;2023-04-03T00:24:32;5.20;;;2.60;;
69305;SDS011;56427;51.580;4.656;2023-04-03T00:26:57;5.17;;;2.77;;
69305;SDS011;56427;51.580;4.656;2023-04-03T00:29:25;8.02;;;3.13;;
69305;SDS011;56427;51.580;4.656;2023-04-03T00:31:51;8.10;;;3.00;;
69305;SDS011;56427;51.580;4.656;2023-04-03T00:34:16;6.07;;;3.10;;
69305;SDS011;56427;51.580;4.656;2023-04-03T00:36:41;6.87;;;2.93;;
69305;SDS011;56427;51.580;4.656;2023-04-03T00:39:06;6.55;;;2.50;;
69305;SDS011;56427;51.580;4.656;2023-04-03T00:41:32;5.80;;;3.03;;
69305;SDS011;56427;51.580;4.656;2023-04-03T00:43:57;6.00;;;2.73;;
69305;SDS011;56427;51.580;4.656;2023-04-03T00:46:23;6.47;;;2.90;;
69305;SDS011;56427;51.580;4.656;2023-04-03T00:48:48;8.90;;;3.17;;
69305;SDS011;56427;51.580;4.656;2023-04-03T00:51:16;5.55;;;2.95;;
69305;SDS011;56427;51.580;4.656;2023-04-03T00:54:09;5.13;;;2.83;;
69305;SDS011;56427;51.580;4.656;2023-04-03T00:56:34;5.00;;;2.40;;
69305;SDS011;56427;51.580;4.656;2023-04-03T00:59:02;11.32;;;3.28;;
69305;SDS011;56427;51.580;4.656;2023-04-03T01:01:31;7.18;;;2.95;;
69305;SDS011;56427;51.580;4.656;2023-04-03T01:04:03;4.73;;;2.37;;
69305;SDS011;56427;51.580;4.656;2023-04-03T01:06:31;4.63;;;2.60;;
69305;SDS011;56427;51.580;4.656;2023-04-03T01:09:00;5.40;;;2.70;;
69305;SDS011;56427;51.580;4.656;2023-04-03T01:11:26;8.20;;;3.00;;
69305;SDS011;56427;51.580;4.656;2023-04-03T01:13:52;5.97;;;3.00;;
69305;SDS011;56427;51.580;4.656;2023-04-03T01:16:18;6.70;;;3.20;;
69305;SDS011;56427;51.580;4.656;2023-04-03T01:18:43;6.72;;;3.00;;
69305;SDS011;56427;51.580;4.656;2023-04-03T01:21:54;8.33;;;3.00;;
69305;SDS011;56427;51.580;4.656;2023-04-03T01:26:47;7.82;;;3.10;;
69305;SDS011;56427;51.580;4.656;2023-04-03T01:29:14;6.80;;;2.22;;
69305;SDS011;56427;51.580;4.656;2023-04-03T01:31:49;5.63;;;2.93;;
69305;SDS011;56427;51.580;4.656;2023-04-03T01:34:16;5.97;;;2.88;;
69305;SDS011;56427;51.580;4.656;2023-04-03T01:36:42;7.23;;;3.40;;
69305;SDS011;56427;51.580;4.656;2023-04-03T01:39:07;6.82;;;2.70;;
69305;SDS011;56427;51.580;4.656;2023-04-03T01:41:33;5.60;;;2.83;;
69305;SDS011;56427;51.580;4.656;2023-04-03T01:43:58;5.13;;;2.80;;
69305;SDS011;56427;51.580;4.656;2023-04-03T01:46:24;7.43;;;3.00;;
69305;SDS011;56427;51.580;4.656;2023-04-03T01:48:50;6.30;;;2.83;;
69305;SDS011;56427;51.580;4.656;2023-04-03T01:51:15;5.63;;;2.78;;
69305;SDS011;56427;51.580;4.656;2023-04-03T01:53:41;5.23;;;2.73;;
69305;SDS011;56427;51.580;4.656;2023-04-03T01:56:07;6.25;;;2.42;;
69305;SDS011;56427;51.580;4.656;2023-04-03T01:58:33;6.57;;;2.83;;
69305;SDS011;56427;51.580;4.656;2023-04-03T02:00:58;7.38;;;2.70;;
69305;SDS011;56427;51.580;4.656;2023-04-03T02:03:24;8.50;;;3.10;;
69305;SDS011;56427;51.580;4.656;2023-04-03T02:05:50;6.27;;;3.20;;
69305;SDS011;56427;51.580;4.656;2023-04-03T02:08:16;4.72;;;2.50;;
69305;SDS011;56427;51.580;4.656;2023-04-03T02:10:43;8.55;;;3.03;;
69305;SDS011;56427;51.580;4.656;2023-04-03T02:13:10;6.50;;;2.95;;
69305;SDS011;56427;51.580;4.656;2023-04-03T02:15:37;6.93;;;2.90;;
69305;SDS011;56427;51.580;4.656;2023-04-03T02:18:03;5.82;;;3.03;;
69305;SDS011;56427;51.580;4.656;2023-04-03T02:20:28;8.33;;;3.13;;
69305;SDS011;56427;51.580;4.656;2023-04-03T02:22:54;6.23;;;2.73;;
69305;SDS011;56427;51.580;4.656;2023-04-03T02:25:20;6.07;;;2.80;;
69305;SDS011;56427;51.580;4.656;2023-04-03T02:27:46;4.72;;;3.00;;
69305;SDS011;56427;51.580;4.656;2023-04-03T02:30:11;5.30;;;2.60;;
69305;SDS011;56427;51.580;4.656;2023-04-03T02:32:37;6.60;;;2.55;;
69305;SDS011;56427;51.580;4.656;2023-04-03T02:35:03;6.43;;;3.23;;
69305;SDS011;56427;51.580;4.656;2023-04-03T02:37:28;6.97;;;2.87;;
69305;SDS011;56427;51.580;4.656;2023-04-03T02:39:54;4.55;;;2.60;;
69305;SDS011;56427;51.580;4.656;2023-04-03T02:42:20;5.53;;;2.63;;
69305;SDS011;56427;51.580;4.656;2023-04-03T02:44:45;8.43;;;3.20;;
69305;SDS011;56427;51.580;4.656;2023-04-03T02:47:11;5.40;;;2.85;;
69305;SDS011;56427;51.580;4.656;2023-04-03T02:49:36;7.13;;;2.73;;
69305;SDS011;56427;51.580;4.656;2023-04-03T02:52:02;7.23;;;3.30;;
69305;SDS011;56427;51.580;4.656;2023-04-03T02:54:27;6.20;;;3.10;;
69305;SDS011;56427;51.580;4.656;2023-04-03T02:56:55;5.85;;;2.72;;
69305;SDS011;56427;51.580;4.656;2023-04-03T02:59:21;5.32;;;2.80;;
69305;SDS011;56427;51.580;4.656;2023-04-03T03:01:46;7.33;;;3.00;;
69305;SDS011;56427;51.580;4.656;2023-04-03T03:04:12;8.55;;;2.55;;
69305;SDS011;56427;51.580;4.656;2023-04-03T03:06:37;6.10;;;2.92;;
69305;SDS011;56427;51.580;4.656;2023-04-03T03:09:03;8.17;;;3.10;;
69305;SDS011;56427;51.580;4.656;2023-04-03T03:11:29;8.27;;;3.53;;
69305;SDS011;56427;51.580;4.656;2023-04-03T03:13:55;8.23;;;3.00;;
69305;SDS011;56427;51.580;4.656;2023-04-03T03:16:20;8.38;;;3.10;;
69305;SDS011;56427;51.580;4.656;2023-04-03T03:18:45;7.00;;;2.50;;
69305;SDS011;56427;51.580;4.656;2023-04-03T03:21:11;6.60;;;3.10;;
69305;SDS011;56427;51.580;4.656;2023-04-03T03:23:36;6.80;;;3.30;;
69305;SDS011;56427;51.580;4.656;2023-04-03T03:26:06;6.50;;;3.00;;
69305;SDS011;56427;51.580;4.656;2023-04-03T03:28:33;6.38;;;3.13;;
69305;SDS011;56427;51.580;4.656;2023-04-03T03:30:58;5.82;;;3.03;;
69305;SDS011;56427;51.580;4.656;2023-04-03T03:33:24;5.37;;;3.13;;
69305;SDS011;56427;51.580;4.656;2023-04-03T03:35:51;9.00;;;2.72;;
69305;SDS011;56427;51.580;4.656;2023-04-03T03:38:17;7.15;;;3.05;;
69305;SDS011;56427;51.580;4.656;2023-04-03T03:40:43;7.47;;;3.20;;
69305;SDS011;56427;51.580;4.656;2023-04-03T03:43:08;5.93;;;3.17;;
69305;SDS011;56427;51.580;4.656;2023-04-03T03:45:33;6.63;;;3.43;;
69305;SDS011;56427;51.580;4.656;2023-04-03T03:47:59;6.72;;;3.28;;
69305;SDS011;56427;51.580;4.656;2023-04-03T03:50:25;5.77;;;2.80;;
69305;SDS011;56427;51.580;4.656;2023-04-03T03:52:51;6.35;;;3.05;;
69305;SDS011;56427;51.580;4.656;2023-04-03T03:55:16;6.70;;;2.90;;
69305;SDS011;56427;51.580;4.656;2023-04-03T03:57:42;10.30;;;3.40;;
69305;SDS011;56427;51.580;4.656;2023-04-03T04:00:08;6.00;;;3.20;;
69305;SDS011;56427;51.580;4.656;2023-04-03T04:02:34;6.75;;;2.90;;
69305;SDS011;56427;51.580;4.656;2023-04-03T04:04:59;6.50;;;3.07;;
69305;SDS011;56427;51.580;4.656;2023-04-03T04:07:24;8.33;;;2.83;;
69305;SDS011;56427;51.580;4.656;2023-04-03T04:09:53;11.38;;;3.08;;
69305;SDS011;56427;51.580;4.656;2023-04-03T04:12:18;5.53;;;3.17;;
69305;SDS011;56427;51.580;4.656;2023-04-03T04:14:43;6.10;;;2.93;;
69305;SDS011;56427;51.580;4.656;2023-04-03T04:17:11;6.25;;;3.72;;
69305;SDS011;56427;51.580;4.656;2023-04-03T04:19:37;7.43;;;3.28;;
69305;SDS011;56427;51.580;4.656;2023-04-03T04:22:03;10.93;;;3.73;;
69305;SDS011;56427;51.580;4.656;2023-04-03T04:24:28;6.93;;;3.20;;
69305;SDS011;56427;51.580;4.656;2023-04-03T04:26:54;6.13;;;3.00;;
69305;SDS011;56427;51.580;4.656;2023-04-03T04:29:19;7.43;;;3.50;;
69305;SDS011;56427;51.580;4.656;2023-04-03T04:31:44;5.97;;;3.50;;
69305;SDS011;56427;51.580;4.656;2023-04-03T04:34:10;6.60;;;3.53;;
69305;SDS011;56427;51.580;4.656;2023-04-03T04:36:35;8.63;;;3.37;;
69305;SDS011;56427;51.580;4.656;2023-04-03T04:39:01;10.03;;;3.83;;
69305;SDS011;56427;51.580;4.656;2023-04-03T04:41:26;8.07;;;3.60;;
69305;SDS011;56427;51.580;4.656;2023-04-03T04:43:52;7.47;;;3.20;;
69305;SDS011;56427;51.580;4.656;2023-04-03T04:46:17;5.40;;;3.00;;
69305;SDS011;56427;51.580;4.656;2023-04-03T04:48:43;6.18;;;3.28;;
69305;SDS011;56427;51.580;4.656;2023-04-03T04:51:09;8.38;;;3.50;;
69305;SDS011;56427;51.580;4.656;2023-04-03T04:53:35;10.10;;;3.47;;
69305;SDS011;56427;51.580;4.656;2023-04-03T04:56:01;7.40;;;3.47;;
69305;SDS011;56427;51.580;4.656;2023-04-03T04:58:27;11.37;;;3.97;;
69305;SDS011;56427;51.580;4.656;2023-04-03T05:00:59;6.82;;;3.47;;
69305;SDS011;56427;51.580;4.656;2023-04-03T05:03:31;8.63;;;3.67;;
69305;SDS011;56427;51.580;4.656;2023-04-03T05:05:57;5.70;;;3.10;;
69305;SDS011;56427;51.580;4.656;2023-04-03T05:08:23;7.28;;;3.33;;
69305;SDS011;56427;51.580;4.656;2023-04-03T05:13:24;7.43;;;3.60;;
69305;SDS011;56427;51.580;4.656;2023-04-03T05:15:49;10.20;;;3.50;;
69305;SDS011;56427;51.580;4.656;2023-04-03T05:18:15;8.15;;;4.30;;
69305;SDS011;56427;51.580;4.656;2023-04-03T05:20:40;6.93;;;3.27;;
69305;SDS011;56427;51.580;4.656;2023-04-03T05:23:06;6.73;;;3.27;;
69305;SDS011;56427;51.580;4.656;2023-04-03T05:25:31;7.40;;;3.70;;
69305;SDS011;56427;51.580;4.656;2023-04-03T05:27:57;7.07;;;3.40;;
69305;SDS011;56427;51.580;4.656;2023-04-03T05:30:22;8.30;;;2.95;;
69305;SDS011;56427;51.580;4.656;2023-04-03T05:32:48;6.77;;;3.23;;
69305;SDS011;56427;51.580;4.656;2023-04-03T05:35:13;9.20;;;3.60;;
69305;SDS011;56427;51.580;4.656;2023-04-03T05:37:39;9.80;;;4.25;;
69305;SDS011;56427;51.580;4.656;2023-04-03T05:40:06;8.70;;;4.50;;
69305;SDS011;56427;51.580;4.656;2023-04-03T05:42:32;8.93;;;4.93;;
69305;SDS011;56427;51.580;4.656;2023-04-03T05:44:57;10.73;;;4.13;;
69305;SDS011;56427;51.580;4.656;2023-04-03T05:47:23;12.47;;;3.97;;
69305;SDS011;56427;51.580;4.656;2023-04-03T05:49:48;11.27;;;3.17;;
69305;SDS011;56427;51.580;4.656;2023-04-03T05:54:51;4.55;;;2.55;;
69305;SDS011;56427;51.580;4.656;2023-04-03T05:57:16;6.70;;;2.92;;
69305;SDS011;56427;51.580;4.656;2023-04-03T05:59:43;8.00;;;3.42;;
69305;SDS011;56427;51.580;4.656;2023-04-03T06:02:13;7.95;;;3.72;;
69305;SDS011;56427;51.580;4.656;2023-04-03T06:04:40;10.75;;;5.15;;
69305;SDS011;56427;51.580;4.656;2023-04-03T06:07:05;15.53;;;6.70;;
69305;SDS011;56427;51.580;4.656;2023-04-03T06:09:32;11.90;;;6.60;;
69305;SDS011;56427;51.580;4.656;2023-04-03T06:11:58;10.35;;;5.28;;
69305;SDS011;56427;51.580;4.656;2023-04-03T06:14:25;6.50;;;2.97;;
69305;SDS011;56427;51.580;4.656;2023-04-03T06:16:51;6.38;;;2.60;;
69305;SDS011;56427;51.580;4.656;2023-04-03T06:19:16;4.07;;;2.30;;
69305;SDS011;56427;51.580;4.656;2023-04-03T06:21:42;7.00;;;3.40;;
69305;SDS011;56427;51.580;4.656;2023-04-03T06:24:07;7.47;;;3.30;;
69305;SDS011;56427;51.580;4.656;2023-04-03T06:26:34;7.25;;;2.83;;
69305;SDS011;56427;51.580;4.656;2023-04-03T06:29:00;3.50;;;2.13;;
69305;SDS011;56427;51.580;4.656;2023-04-03T06:31:26;4.97;;;2.40;;
69305;SDS011;56427;51.580;4.656;2023-04-03T06:33:51;5.28;;;2.20;;
69305;SDS011;56427;51.580;4.656;2023-04-03T06:36:18;6.80;;;2.53;;
69305;SDS011;56427;51.580;4.656;2023-04-03T06:38:47;6.53;;;2.30;;
69305;SDS011;56427;51.580;4.656;2023-04-03T06:41:13;5.63;;;2.20;;
69305;SDS011;56427;51.580;4.656;2023-04-03T06:43:38;4.47;;;2.05;;
69305;SDS011;56427;51.580;4.656;2023-04-03T06:46:04;4.00;;;2.10;;
69305;SDS011;56427;51.580;4.656;2023-04-03T06:48:30;6.93;;;2.40;;
69305;SDS011;56427;51.580;4.656;2023-04-03T06:50:56;5.97;;;2.35;;
69305;SDS011;56427;51.580;4.656;2023-04-03T06:53:21;6.33;;;2.80;;
69305;SDS011;56427;51.580;4.656;2023-04-03T06:55:47;4.97;;;1.98;;
69305;SDS011;56427;51.580;4.656;2023-04-03T06:58:12;3.67;;;1.73;;
69305;SDS011;56427;51.580;4.656;2023-04-03T07:00:40;4.15;;;2.05;;
69305;SDS011;56427;51.580;4.656;2023-04-03T07:03:06;5.80;;;2.13;;
69305;SDS011;56427;51.580;4.656;2023-04-03T07:05:31;4.03;;;2.30;;
69305;SDS011;56427;51.580;4.656;2023-04-03T07:07:57;4.63;;;2.23;;
69305;SDS011;56427;51.580;4.656;2023-04-03T07:10:22;8.27;;;2.03;;
69305;SDS011;56427;51.580;4.656;2023-04-03T07:12:47;4.43;;;2.20;;
69305;SDS011;56427;51.580;4.656;2023-04-03T07:15:13;4.93;;;1.90;;
69305;SDS011;56427;51.580;4.656;2023-04-03T07:17:39;4.97;;;2.22;;
69305;SDS011;56427;51.580;4.656;2023-04-03T07:20:05;3.95;;;2.30;;
69305;SDS011;56427;51.580;4.656;2023-04-03T07:22:32;5.45;;;1.98;;
69305;SDS011;56427;51.580;4.656;2023-04-03T07:24:58;6.00;;;2.15;;
69305;SDS011;56427;51.580;4.656;2023-04-03T07:27:24;5.68;;;2.03;;
69305;SDS011;56427;51.580;4.656;2023-04-03T07:29:50;5.65;;;2.05;;
69305;SDS011;56427;51.580;4.656;2023-04-03T07:32:15;8.07;;;2.35;;
69305;SDS011;56427;51.580;4.656;2023-04-03T07:34:41;4.53;;;1.80;;
69305;SDS011;56427;51.580;4.656;2023-04-03T07:37:06;4.90;;;1.80;;
69305;SDS011;56427;51.580;4.656;2023-04-03T07:39:34;6.40;;;2.05;;
69305;SDS011;56427;51.580;4.656;2023-04-03T07:41:59;5.30;;;2.17;;
69305;SDS011;56427;51.580;4.656;2023-04-03T07:44:25;4.18;;;1.70;;
69305;SDS011;56427;51.580;4.656;2023-04-03T07:46:51;5.55;;;1.92;;
69305;SDS011;56427;51.580;4.656;2023-04-03T07:49:17;7.13;;;2.30;;
69305;SDS011;56427;51.580;4.656;2023-04-03T07:51:47;6.47;;;1.92;;
69305;SDS011;56427;51.580;4.656;2023-04-03T07:54:13;3.70;;;1.90;;
69305;SDS011;56427;51.580;4.656;2023-04-03T07:56:39;4.22;;;1.98;;
69305;SDS011;56427;51.580;4.656;2023-04-03T07:59:04;5.90;;;2.10;;
69305;SDS011;56427;51.580;4.656;2023-04-03T08:01:30;3.70;;;2.00;;
69305;SDS011;56427;51.580;4.656;2023-04-03T08:03:57;7.30;;;2.70;;
69305;SDS011;56427;51.580;4.656;2023-04-03T08:06:23;5.23;;;1.70;;
69305;SDS011;56427;51.580;4.656;2023-04-03T08:08:48;4.85;;;2.10;;
69305;SDS011;56427;51.580;4.656;2023-04-03T08:11:13;6.88;;;1.95;;
69305;SDS011;56427;51.580;4.656;2023-04-03T08:13:39;4.70;;;1.50;;
69305;SDS011;56427;51.580;4.656;2023-04-03T08:16:16;6.60;;;2.05;;
69305;SDS011;56427;51.580;4.656;2023-04-03T08:18:43;7.38;;;2.08;;
69305;SDS011;56427;51.580;4.656;2023-04-03T08:21:09;5.10;;;1.20;;
69305;SDS011;56427;51.580;4.656;2023-04-03T08:23:35;4.13;;;1.73;;
69305;SDS011;56427;51.580;4.656;2023-04-03T08:26:09;7.03;;;2.10;;
69305;SDS011;56427;51.580;4.656;2023-04-03T08:28:40;6.23;;;1.70;;
69305;SDS011;56427;51.580;4.656;2023-04-03T08:31:07;7.68;;;1.83;;
69305;SDS011;56427;51.580;4.656;2023-04-03T08:33:36;4.72;;;1.70;;
69305;SDS011;56427;51.580;4.656;2023-04-03T08:36:05;5.18;;;1.52;;
69305;SDS011;56427;51.580;4.656;2023-04-03T08:38:32;4.85;;;1.50;;
69305;SDS011;56427;51.580;4.656;2023-04-03T08:41:02;3.87;;;2.17;;
69305;SDS011;56427;51.580;4.656;2023-04-03T08:44:21;5.47;;;1.27;;
69305;SDS011;56427;51.580;4.656;2023-04-03T08:46:25;4.28;;;1.95;;
69305;SDS011;56427;51.580;4.656;2023-04-03T08:49:00;4.10;;;1.30;;
69305;SDS011;56427;51.580;4.656;2023-04-03T08:51:26;5.53;;;1.57;;
69305;SDS011;56427;51.580;4.656;2023-04-03T08:56:42;4.18;;;1.55;;
69305;SDS011;56427;51.580;4.656;2023-04-03T08:59:11;6.00;;;1.40;;
69305;SDS011;56427;51.580;4.656;2023-04-03T09:01:51;8.18;;;1.30;;
69305;SDS011;56427;51.580;4.656;2023-04-03T09:04:17;4.30;;;1.65;;
69305;SDS011;56427;51.580;4.656;2023-04-03T09:06:44;5.70;;;1.50;;
69305;SDS011;56427;51.580;4.656;2023-04-03T09:09:15;3.38;;;1.33;;
69305;SDS011;56427;51.580;4.656;2023-04-03T09:12:03;5.03;;;1.23;;
69305;SDS011;56427;51.580;4.656;2023-04-03T09:19:58;7.13;;;1.27;;
69305;SDS011;56427;51.580;4.656;2023-04-03T09:22:27;5.07;;;1.35;;
69305;SDS011;56427;51.580;4.656;2023-04-03T09:27:32;3.40;;;1.25;;
69305;SDS011;56427;51.580;4.656;2023-04-03T09:29:58;4.67;;;1.30;;
69305;SDS011;56427;51.580;4.656;2023-04-03T09:32:35;3.57;;;1.30;;
69305;SDS011;56427;51.580;4.656;2023-04-03T09:35:03;5.63;;;1.42;;
69305;SDS011;56427;51.580;4.656;2023-04-03T09:37:47;3.03;;;1.23;;
69305;SDS011;56427;51.580;4.656;2023-04-03T09:40:35;3.97;;;1.33;;
69305;SDS011;56427;51.580;4.656;2023-04-03T09:45:47;3.22;;;1.13;;
69305;SDS011;56427;51.580;4.656;2023-04-03T09:53:32;2.90;;;1.17;;
69305;SDS011;56427;51.580;4.656;2023-04-03T09:56:39;2.38;;;1.02;;
69305;SDS011;56427;51.580;4.656;2023-04-03T10:01:31;3.50;;;1.17;;
69305;SDS011;56427;51.580;4.656;2023-04-03T10:06:52;5.43;;;0.90;;
69305;SDS011;56427;51.580;4.656;2023-04-03T10:09:21;2.65;;;1.08;;
69305;SDS011;56427;51.580;4.656;2023-04-03T10:11:57;2.05;;;0.80;;
69305;SDS011;56427;51.580;4.656;2023-04-03T10:14:23;4.10;;;0.85;;
69305;SDS011;56427;51.580;4.656;2023-04-03T10:16:51;2.60;;;0.98;;
69305;SDS011;56427;51.580;4.656;2023-04-03T10:22:33;4.13;;;1.00;;
69305;SDS011;56427;51.580;4.656;2023-04-03T10:25:17;3.33;;;1.10;;
69305;SDS011;56427;51.580;4.656;2023-04-03T10:27:55;3.55;;;1.00;;
69305;SDS011;56427;51.580;4.656;2023-04-03T10:30:30;3.20;;;1.10;;
69305;SDS011;56427;51.580;4.656;2023-04-03T10:32:59;3.13;;;1.38;;
69305;SDS011;56427;51.580;4.656;2023-04-03T10:35:53;3.00;;;0.93;;
69305;SDS011;56427;51.580;4.656;2023-04-03T10:46:42;3.90;;;0.90;;
69305;SDS011;56427;51.580;4.656;2023-04-03T10:51:47;2.40;;;0.83;;
69305;SDS011;56427;51.580;4.656;2023-04-03T10:57:06;3.35;;;0.88;;
69305;SDS011;56427;51.580;4.656;2023-04-03T10:59:45;3.58;;;0.90;;
69305;SDS011;56427;51.580;4.656;2023-04-03T11:04:44;2.47;;;0.90;;
69305;SDS011;56427;51.580;4.656;2023-04-03T11:07:23;3.08;;;0.73;;
69305;SDS011;56427;51.580;4.656;2023-04-03T11:09:57;2.53;;;0.65;;
69305;SDS011;56427;51.580;4.656;2023-04-03T11:12:36;3.17;;;0.85;;
69305;SDS011;56427;51.580;4.656;2023-04-03T11:15:11;3.13;;;0.90;;
69305;SDS011;56427;51.580;4.656;2023-04-03T11:17:41;4.10;;;1.10;;
69305;SDS011;56427;51.580;4.656;2023-04-03T11:20:20;3.50;;;1.00;;
69305;SDS011;56427;51.580;4.656;2023-04-03T11:23:25;3.22;;;0.80;;
69305;SDS011;56427;51.580;4.656;2023-04-03T11:25:50;3.58;;;0.90;;
69305;SDS011;56427;51.580;4.656;2023-04-03T11:28:18;3.33;;;0.80;;
69305;SDS011;56427;51.580;4.656;2023-04-03T11:33:31;2.45;;;0.90;;
69305;SDS011;56427;51.580;4.656;2023-04-03T11:36:08;2.70;;;0.90;;
69305;SDS011;56427;51.580;4.656;2023-04-03T11:38:38;2.67;;;1.00;;
69305;SDS011;56427;51.580;4.656;2023-04-03T11:41:08;2.70;;;1.00;;
69305;SDS011;56427;51.580;4.656;2023-04-03T11:43:40;3.83;;;1.02;;
69305;SDS011;56427;51.580;4.656;2023-04-03T11:46:07;3.30;;;1.10;;
69305;SDS011;56427;51.580;4.656;2023-04-03T11:50:59;2.87;;;0.90;;
69305;SDS011;56427;51.580;4.656;2023-04-03T11:53:49;3.25;;;1.00;;
69305;SDS011;56427;51.580;4.656;2023-04-03T12:01:52;3.63;;;0.90;;
69305;SDS011;56427;51.580;4.656;2023-04-03T12:04:20;3.95;;;1.00;;
69305;SDS011;56427;51.580;4.656;2023-04-03T12:11:58;1.93;;;0.70;;
69305;SDS011;56427;51.580;4.656;2023-04-03T12:14:26;2.50;;;0.70;;
69305;SDS011;56427;51.580;4.656;2023-04-03T12:16:54;3.53;;;1.00;;
69305;SDS011;56427;51.580;4.656;2023-04-03T12:19:38;2.03;;;0.68;;
69305;SDS011;56427;51.580;4.656;2023-04-03T12:22:09;1.90;;;0.60;;
69305;SDS011;56427;51.580;4.656;2023-04-03T12:24:38;2.20;;;0.70;;
69305;SDS011;56427;51.580;4.656;2023-04-03T12:29:38;3.88;;;1.10;;
69305;SDS011;56427;51.580;4.656;2023-04-03T12:35:07;3.30;;;0.73;;
69305;SDS011;56427;51.580;4.656;2023-04-03T12:48:25;4.00;;;0.70;;
69305;SDS011;56427;51.580;4.656;2023-04-03T12:50:53;1.90;;;0.80;;
69305;SDS011;56427;51.580;4.656;2023-04-03T12:53:33;2.45;;;0.93;;
69305;SDS011;56427;51.580;4.656;2023-04-03T12:58:50;2.67;;;0.70;;
69305;SDS011;56427;51.580;4.656;2023-04-03T13:01:18;1.92;;;0.77;;
69305;SDS011;56427;51.580;4.656;2023-04-03T13:03:49;2.00;;;0.80;;
69305;SDS011;56427;51.580;4.656;2023-04-03T13:06:18;2.33;;;0.90;;
69305;SDS011;56427;51.580;4.656;2023-04-03T13:08:56;4.65;;;1.08;;
69305;SDS011;56427;51.580;4.656;2023-04-03T13:11:24;2.50;;;0.90;;
69305;SDS011;56427;51.580;4.656;2023-04-03T13:13:59;1.98;;;0.90;;
69305;SDS011;56427;51.580;4.656;2023-04-03T13:16:30;5.17;;;1.00;;
69305;SDS011;56427;51.580;4.656;2023-04-03T13:18:56;2.85;;;1.15;;
69305;SDS011;56427;51.580;4.656;2023-04-03T13:21:26;2.20;;;0.80;;
69305;SDS011;56427;51.580;4.656;2023-04-03T13:23:58;10.15;;;2.00;;
69305;SDS011;56427;51.580;4.656;2023-04-03T13:26:30;2.15;;;0.75;;
69305;SDS011;56427;51.580;4.656;2023-04-03T13:29:02;3.70;;;1.20;;
69305;SDS011;56427;51.580;4.656;2023-04-03T13:31:32;7.32;;;0.93;;
69305;SDS011;56427;51.580;4.656;2023-04-03T13:36:46;3.00;;;0.98;;
69305;SDS011;56427;51.580;4.656;2023-04-03T13:39:29;2.05;;;0.70;;
69305;SDS011;56427;51.580;4.656;2023-04-03T13:42:00;2.47;;;0.90;;
69305;SDS011;56427;51.580;4.656;2023-04-03T13:44:39;1.98;;;0.80;;
69305;SDS011;56427;51.580;4.656;2023-04-03T13:49:58;4.18;;;1.02;;
69305;SDS011;56427;51.580;4.656;2023-04-03T13:52:54;2.20;;;0.95;;
69305;SDS011;56427;51.580;4.656;2023-04-03T13:55:27;3.40;;;1.03;;
69305;SDS011;56427;51.580;4.656;2023-04-03T13:58:02;3.17;;;0.90;;
69305;SDS011;56427;51.580;4.656;2023-04-03T14:00:58;4.93;;;0.98;;
69305;SDS011;56427;51.580;4.656;2023-04-03T14:03:24;2.97;;;0.90;;
69305;SDS011;56427;51.580;4.656;2023-04-03T14:06:00;2.78;;;1.00;;
69305;SDS011;56427;51.580;4.656;2023-04-03T14:08:26;2.50;;;0.87;;
69305;SDS011;56427;51.580;4.656;2023-04-03T14:10:52;4.00;;;1.13;;
69305;SDS011;56427;51.580;4.656;2023-04-03T14:13:18;3.63;;;1.48;;
69305;SDS011;56427;51.580;4.656;2023-04-03T14:15:45;3.85;;;1.30;;
69305;SDS011;56427;51.580;4.656;2023-04-03T14:18:14;2.80;;;0.90;;
69305;SDS011;56427;51.580;4.656;2023-04-03T14:20:42;3.97;;;1.10;;
69305;SDS011;56427;51.580;4.656;2023-04-03T14:23:08;3.47;;;0.85;;
69305;SDS011;56427;51.580;4.656;2023-04-03T14:25:34;2.15;;;0.90;;
69305;SDS011;56427;51.580;4.656;2023-04-03T14:28:00;3.65;;;1.10;;
69305;SDS011;56427;51.580;4.656;2023-04-03T14:32:54;3.65;;;1.17;;
69305;SDS011;56427;51.580;4.656;2023-04-03T14:35:20;2.97;;;1.05;;
69305;SDS011;56427;51.580;4.656;2023-04-03T14:37:46;3.80;;;1.27;;
69305;SDS011;56427;51.580;4.656;2023-04-03T14:40:14;2.90;;;0.90;;
69305;SDS011;56427;51.580;4.656;2023-04-03T14:42:45;3.50;;;1.30;;
69305;SDS011;56427;51.580;4.656;2023-04-03T14:45:12;3.10;;;1.10;;
69305;SDS011;56427;51.580;4.656;2023-04-03T14:47:46;3.05;;;1.10;;
69305;SDS011;56427;51.580;4.656;2023-04-03T14:50:15;3.47;;;1.23;;
69305;SDS011;56427;51.580;4.656;2023-04-03T14:52:42;3.08;;;0.90;;
69305;SDS011;56427;51.580;4.656;2023-04-03T14:55:08;2.50;;;1.02;;
69305;SDS011;56427;51.580;4.656;2023-04-03T14:57:44;4.00;;;1.10;;
69305;SDS011;56427;51.580;4.656;2023-04-03T15:00:16;3.45;;;1.00;;
69305;SDS011;56427;51.580;4.656;2023-04-03T15:02:43;5.38;;;1.35;;
69305;SDS011;56427;51.580;4.656;2023-04-03T15:05:10;5.20;;;1.30;;
69305;SDS011;56427;51.580;4.656;2023-04-03T15:07:37;4.60;;;1.10;;
69305;SDS011;56427;51.580;4.656;2023-04-03T15:12:42;3.80;;;1.35;;
69305;SDS011;56427;51.580;4.656;2023-04-03T15:15:08;5.80;;;1.00;;
69305;SDS011;56427;51.580;4.656;2023-04-03T15:17:34;3.93;;;1.30;;
69305;SDS011;56427;51.580;4.656;2023-04-03T15:20:00;4.72;;;1.20;;
69305;SDS011;56427;51.580;4.656;2023-04-03T15:22:27;3.53;;;1.08;;
69305;SDS011;56427;51.580;4.656;2023-04-03T15:24:52;3.67;;;1.47;;
69305;SDS011;56427;51.580;4.656;2023-04-03T15:27:18;5.73;;;1.33;;
69305;SDS011;56427;51.580;4.656;2023-04-03T15:29:44;7.00;;;1.40;;
69305;SDS011;56427;51.580;4.656;2023-04-03T15:32:10;4.40;;;1.30;;
69305;SDS011;56427;51.580;4.656;2023-04-03T15:34:36;3.65;;;1.10;;
69305;SDS011;56427;51.580;4.656;2023-04-03T15:37:02;3.83;;;1.23;;
69305;SDS011;56427;51.580;4.656;2023-04-03T15:39:27;4.50;;;1.10;;
69305;SDS011;56427;51.580;4.656;2023-04-03T15:41:53;3.30;;;1.33;;
69305;SDS011;56427;51.580;4.656;2023-04-03T15:44:19;2.38;;;0.93;;
69305;SDS011;56427;51.580;4.656;2023-04-03T15:46:46;4.20;;;1.30;;
69305;SDS011;56427;51.580;4.656;2023-04-03T15:49:13;3.00;;;1.20;;
69305;SDS011;56427;51.580;4.656;2023-04-03T15:51:39;3.47;;;1.30;;
69305;SDS011;56427;51.580;4.656;2023-04-03T15:54:05;4.17;;;0.97;;
69305;SDS011;56427;51.580;4.656;2023-04-03T15:56:30;4.53;;;1.40;;
69305;SDS011;56427;51.580;4.656;2023-04-03T15:58:55;2.75;;;1.20;;
69305;SDS011;56427;51.580;4.656;2023-04-03T16:01:21;3.80;;;1.30;;
69305;SDS011;56427;51.580;4.656;2023-04-03T16:03:46;3.87;;;1.33;;
69305;SDS011;56427;51.580;4.656;2023-04-03T16:06:15;3.65;;;1.10;;
69305;SDS011;56427;51.580;4.656;2023-04-03T16:08:43;4.50;;;1.20;;
69305;SDS011;56427;51.580;4.656;2023-04-03T16:11:08;3.97;;;1.50;;
69305;SDS011;56427;51.580;4.656;2023-04-03T16:13:34;6.53;;;1.70;;
69305;SDS011;56427;51.580;4.656;2023-04-03T16:16:00;2.53;;;1.20;;
69305;SDS011;56427;51.580;4.656;2023-04-03T16:18:27;3.10;;;1.15;;
69305;SDS011;56427;51.580;4.656;2023-04-03T16:20:53;5.22;;;1.40;;
69305;SDS011;56427;51.580;4.656;2023-04-03T16:23:19;2.70;;;1.08;;
69305;SDS011;56427;51.580;4.656;2023-04-03T16:25:45;5.15;;;1.95;;
69305;SDS011;56427;51.580;4.656;2023-04-03T16:28:12;4.70;;;1.40;;
69305;SDS011;56427;51.580;4.656;2023-04-03T16:30:40;5.13;;;1.23;;